Time;durP1;ratioP1;P1;durP2;ratioP2;P2;SDS_P1;SDS_P2;PMS_P1;PMS_P2;Temp;Humidity;BMP_temperature;BMP_pressure;BME280_temperature;BME280_humidity;BME280_pressure;Samples;Min_cycle;Max_cycle;Signal;HPM_P1;HPM_P2
2022/03/04 00:00:35;;;;;;;2.87;2.67;;;25.80;43.70;;;;;;5053388;28;20438;-90
2022/03/04 00:03:02;;;;;;;3.37;2.50;;;26.00;43.80;;;;;;5053386;28;20433;-85
2022/03/04 00:05:29;;;;;;;2.80;2.60;;;25.80;43.70;;;;;;5053524;28;20449;-85
2022/03/04 00:07:56;;;;;;;3.30;3.00;;;25.80;43.70;;;;;;5053570;28;20537;-86
2022/03/04 00:10:22;;;;;;;2.97;2.77;;;25.90;43.70;;;;;;5053144;28;20433;-85
2022/03/04 00:12:49;;;;;;;2.70;2.50;;;25.80;43.60;;;;;;5053070;28;20438;-86
2022/03/04 00:15:16;;;;;;;3.13;2.83;;;25.70;43.60;;;;;;5053110;28;20469;-88
2022/03/04 00:17:44;;;;;;;3.67;3.37;;;25.80;43.70;;;;;;5053216;28;20480;-89
2022/03/04 00:20:11;;;;;;;3.00;2.80;;;25.80;43.70;;;;;;5053053;28;20442;-85
2022/03/04 00:22:38;;;;;;;2.67;2.47;;;25.70;43.60;;;;;;5053059;28;20493;-85
2022/03/04 00:25:06;;;;;;;2.60;2.40;;;25.90;43.70;;;;;;5052863;28;20441;-85
2022/03/04 00:27:33;;;;;;;2.70;2.50;;;25.70;43.60;;;;;;5053098;28;20437;-86
2022/03/04 00:30:01;;;;;;;3.37;2.90;;;25.70;43.60;;;;;;5053047;28;20445;-90
2022/03/04 00:32:28;;;;;;;2.97;2.77;;;25.70;43.70;;;;;;5053102;28;20441;-85
2022/03/04 00:34:56;;;;;;;3.00;2.80;;;25.70;43.60;;;;;;5052863;28;20449;-85
2022/03/04 00:37:23;;;;;;;2.70;2.50;;;25.70;43.60;;;;;;5053169;28;20434;-86
2022/03/04 00:39:50;;;;;;;3.20;2.67;;;25.70;43.70;;;;;;5053089;28;20446;-85
2022/03/04 00:42:16;;;;;;;2.97;2.77;;;25.70;43.70;;;;;;5053066;28;20485;-89
2022/03/04 00:44:43;;;;;;;2.90;2.77;;;25.70;43.70;;;;;;5052959;28;20454;-85
2022/03/04 00:47:10;;;;;;;2.80;2.60;;;25.70;43.60;;;;;;5052908;28;20446;-86
2022/03/04 00:49:37;;;;;;;2.20;2.10;;;25.60;43.60;;;;;;5052808;28;20963;-86
2022/03/04 00:52:06;;;;;;;3.13;2.90;;;25.70;43.70;;;;;;5052703;28;20984;-89
2022/03/04 00:54:32;;;;;;;2.40;2.20;;;25.60;43.60;;;;;;5052852;28;20438;-89
2022/03/04 00:56:59;;;;;;;2.57;2.37;;;25.60;43.60;;;;;;5052803;28;20947;-85
2022/03/04 00:59:26;;;;;;;2.80;2.60;;;25.60;43.60;;;;;;5052704;28;20444;-86
2022/03/04 01:01:53;;;;;;;2.90;2.70;;;25.60;43.60;;;;;;5052830;28;20999;-85
2022/03/04 01:04:20;;;;;;;3.07;2.77;;;25.60;43.60;;;;;;5052880;28;20446;-89
2022/03/04 01:06:46;;;;;;;2.40;2.20;;;25.60;43.60;;;;;;5052690;28;20446;-89
2022/03/04 01:09:14;;;;;;;2.73;2.53;;;25.60;43.60;;;;;;5052646;28;20449;-89
2022/03/04 01:11:41;;;;;;;3.07;2.87;;;25.60;43.60;;;;;;5052620;28;20434;-89
2022/03/04 01:14:09;;;;;;;2.70;2.50;;;25.60;43.60;;;;;;5052576;28;20437;-89
2022/03/04 01:16:36;;;;;;;3.50;3.23;;;25.50;43.60;;;;;;5052613;28;20460;-85
2022/03/04 01:19:04;;;;;;;2.47;2.27;;;25.50;43.60;;;;;;5052805;28;20449;-89
2022/03/04 01:21:31;;;;;;;2.80;2.60;;;25.70;43.70;;;;;;5052528;28;20489;-85
2022/03/04 01:23:58;;;;;;;2.60;2.50;;;25.50;43.80;;;;;;5054532;28;20452;-85
2022/03/04 01:26:26;;;;;;;2.50;2.30;;;25.50;43.70;;;;;;5056333;28;20445;-85
2022/03/04 01:28:53;;;;;;;2.97;2.77;;;25.70;43.70;;;;;;5056565;28;20810;-85
2022/03/04 01:31:20;;;;;;;2.60;2.40;;;25.60;43.70;;;;;;5056109;28;20453;-90
2022/03/04 01:33:47;;;;;;;3.23;2.93;;;25.50;43.60;;;;;;5056087;28;20816;-85
2022/03/04 01:36:13;;;;;;;2.80;2.60;;;25.50;43.70;;;;;;5056061;28;20441;-85
2022/03/04 01:38:40;;;;;;;2.77;2.57;;;25.50;43.60;;;;;;5056113;28;20465;-85
2022/03/04 01:41:07;;;;;;;2.97;2.77;;;25.50;43.60;;;;;;5055969;28;20438;-85
2022/03/04 01:43:36;;;;;;;3.00;2.80;;;25.50;43.60;;;;;;5056040;28;20438;-89
2022/03/04 01:46:12;;;;;;;2.77;2.57;;;25.50;43.60;;;;;;5055592;28;20532;-88
2022/03/04 01:48:39;;;;;;;3.13;2.87;;;25.50;43.60;;;;;;5055983;28;20445;-85
2022/03/04 01:51:06;;;;;;;2.50;2.30;;;25.40;43.60;;;;;;5055801;28;20438;-90
2022/03/04 01:53:33;;;;;;;2.67;2.47;;;25.50;43.60;;;;;;5055845;28;20442;-89
2022/03/04 01:55:59;;;;;;;2.50;2.40;;;25.50;43.60;;;;;;5055756;28;20446;-85
2022/03/04 01:58:26;;;;;;;2.90;2.70;;;25.50;43.60;;;;;;5055507;28;20438;-86
2022/03/04 02:00:54;;;;;;;2.80;2.60;;;25.50;43.60;;;;;;5055518;28;20437;-88
2022/03/04 02:03:27;;;;;;;2.70;2.50;;;25.40;43.60;;;;;;5055634;28;20481;-87
2022/03/04 02:05:54;;;;;;;3.20;2.90;;;25.50;43.60;;;;;;5054928;28;20804;-85
2022/03/04 02:08:21;;;;;;;2.50;2.30;;;25.40;43.60;;;;;;5055620;28;20442;-88
2022/03/04 02:10:48;;;;;;;2.60;2.40;;;25.40;43.60;;;;;;5055469;28;20461;-85
2022/03/04 02:13:16;;;;;;;2.73;2.53;;;25.40;43.60;;;;;;5055432;28;20450;-85
2022/03/04 02:15:44;;;;;;;2.67;2.47;;;25.40;43.60;;;;;;5055270;28;20488;-85
2022/03/04 02:18:13;;;;;;;2.70;2.50;;;25.40;43.60;;;;;;5055395;28;20438;-85
2022/03/04 02:20:42;;;;;;;2.50;2.30;;;25.40;43.60;;;;;;5055267;28;20440;-86
2022/03/04 02:23:13;;;;;;;2.50;2.30;;;25.40;43.60;;;;;;5055293;28;20481;-85
2022/03/04 02:25:41;;;;;;;2.60;2.40;;;25.40;43.60;;;;;;5055104;28;20450;-86
2022/03/04 02:28:09;;;;;;;2.57;2.37;;;25.40;43.60;;;;;;5055074;28;20453;-89
2022/03/04 02:30:37;;;;;;;2.80;2.60;;;25.40;43.60;;;;;;5055037;28;20883;-89
2022/03/04 02:33:05;;;;;;;2.63;2.43;;;25.30;43.60;;;;;;5055126;28;20515;-85
2022/03/04 02:35:33;;;;;;;2.97;2.73;;;25.40;43.60;;;;;;5053794;28;21046;-89
2022/03/04 02:38:00;;;;;;;2.73;2.60;;;25.30;43.60;;;;;;5055159;28;20438;-85
2022/03/04 02:40:28;;;;;;;2.67;2.47;;;25.30;43.60;;;;;;5055051;28;20521;-85
2022/03/04 02:42:55;;;;;;;2.50;2.40;;;25.40;43.70;;;;;;5054877;28;20492;-90
2022/03/04 02:45:22;;;;;;;3.30;3.10;;;25.30;43.60;;;;;;5054697;28;20465;-90
2022/03/04 02:47:49;;;;;;;2.53;2.33;;;25.30;43.60;;;;;;5054747;28;20971;-85
2022/03/04 02:50:15;;;;;;;2.80;2.60;;;25.30;43.60;;;;;;5054792;28;20441;-85
2022/03/04 02:52:42;;;;;;;3.10;2.90;;;25.30;43.70;;;;;;5054558;28;20481;-89
2022/03/04 02:55:11;;;;;;;2.97;2.77;;;25.30;43.60;;;;;;5054741;28;20441;-90
2022/03/04 02:57:41;;;;;;;3.13;2.90;;;25.20;43.60;;;;;;5054631;28;20473;-85
2022/03/04 03:00:08;;;;;;;2.90;2.70;;;25.30;43.60;;;;;;5054553;28;20434;-89
2022/03/04 03:02:35;;;;;;;2.87;2.67;;;25.30;43.60;;;;;;5054428;28;20505;-85
2022/03/04 03:05:03;;;;;;;2.77;2.57;;;25.30;43.60;;;;;;5054285;28;20446;-85
2022/03/04 03:07:30;;;;;;;2.40;2.20;;;25.20;43.50;;;;;;5054308;28;20944;-86
2022/03/04 03:09:57;;;;;;;2.93;2.70;;;25.20;43.50;;;;;;5054038;28;20994;-85
2022/03/04 03:12:24;;;;;;;2.70;2.60;;;25.30;43.60;;;;;;5054478;28;20438;-85
2022/03/04 03:14:52;;;;;;;2.53;2.43;;;25.20;43.50;;;;;;5054172;28;20533;-86
2022/03/04 03:17:22;;;;;;;2.50;2.30;;;25.40;43.60;;;;;;5054152;28;20445;-89
2022/03/04 03:19:49;;;;;;;3.00;2.80;;;25.30;43.60;;;;;;5054211;28;20824;-85
2022/03/04 03:22:18;;;;;;;2.70;2.50;;;25.20;43.50;;;;;;5053857;28;20488;-85
2022/03/04 03:24:45;;;;;;;2.57;2.37;;;25.20;43.60;;;;;;5053725;28;20445;-85
2022/03/04 03:27:12;;;;;;;2.83;2.63;;;25.20;43.60;;;;;;5054128;28;20434;-85
2022/03/04 03:29:38;;;;;;;2.83;2.63;;;25.20;43.60;;;;;;5053960;28;20440;-85
2022/03/04 03:32:07;;;;;;;3.00;2.70;;;25.40;43.60;;;;;;5053949;28;20821;-85
2022/03/04 03:34:34;;;;;;;3.13;2.60;;;25.30;43.50;;;;;;5054011;28;20928;-89
2022/03/04 03:37:01;;;;;;;2.87;2.67;;;25.30;43.50;;;;;;5053769;28;20441;-85
2022/03/04 03:39:27;;;;;;;3.13;2.90;;;25.40;43.60;;;;;;5053949;28;20442;-89
2022/03/04 03:41:54;;;;;;;2.20;2.00;;;25.30;43.50;;;;;;5053735;28;20473;-90
2022/03/04 03:44:21;;;;;;;3.03;2.83;;;25.30;43.50;;;;;;5053594;28;20444;-89
2022/03/04 03:46:47;;;;;;;2.90;2.70;;;25.30;43.50;;;;;;5053384;28;20446;-89
2022/03/04 03:49:16;;;;;;;3.00;2.80;;;25.30;43.40;;;;;;5053762;28;20430;-86
2022/03/04 03:51:42;;;;;;;2.60;2.40;;;25.40;43.40;;;;;;5053383;28;20476;-90
2022/03/04 03:54:10;;;;;;;2.73;2.53;;;25.50;43.50;;;;;;5053576;28;20440;-90
2022/03/04 03:56:37;;;;;;;2.93;2.73;;;25.40;43.40;;;;;;5053502;28;20441;-89
2022/03/04 03:59:04;;;;;;;2.53;2.43;;;25.40;43.30;;;;;;5053490;28;20437;-86
2022/03/04 04:01:30;;;;;;;2.73;2.53;;;25.40;43.30;;;;;;5053453;28;20438;-86
2022/03/04 04:03:57;;;;;;;2.43;2.20;;;25.40;43.30;;;;;;5053270;28;20497;-90
2022/03/04 04:06:25;;;;;;;3.03;2.83;;;25.40;43.30;;;;;;5053349;28;20442;-85
2022/03/04 04:08:52;;;;;;;3.17;2.90;;;25.40;43.30;;;;;;5053302;28;20434;-85
2022/03/04 04:11:19;;;;;;;2.90;2.70;;;25.50;43.30;;;;;;5053277;28;20449;-85
2022/03/04 04:13:46;;;;;;;2.93;2.73;;;25.40;43.30;;;;;;5053344;28;20449;-85
2022/03/04 04:16:14;;;;;;;3.37;3.07;;;25.40;43.30;;;;;;5053059;28;20469;-85
2022/03/04 04:18:41;;;;;;;2.80;2.60;;;25.40;43.30;;;;;;5053211;28;20456;-85
2022/03/04 04:21:08;;;;;;;2.40;2.20;;;25.40;43.30;;;;;;5053060;28;20917;-85
2022/03/04 04:23:37;;;;;;;2.40;2.20;;;25.40;43.30;;;;;;5053025;28;21025;-85
2022/03/04 04:26:05;;;;;;;2.60;2.33;;;25.40;43.30;;;;;;5053077;28;20438;-85
2022/03/04 04:28:32;;;;;;;3.13;2.93;;;25.40;43.30;;;;;;5053043;28;20441;-85
2022/03/04 04:30:59;;;;;;;2.60;2.40;;;25.40;43.20;;;;;;5053121;28;20952;-85
2022/03/04 04:33:25;;;;;;;3.27;3.07;;;25.40;43.30;;;;;;5053132;28;20442;-85
2022/03/04 04:35:52;;;;;;;2.73;2.53;;;25.40;43.30;;;;;;5053068;28;20465;-85
2022/03/04 04:38:19;;;;;;;2.50;2.40;;;25.40;43.20;;;;;;5053020;28;20452;-85
2022/03/04 04:40:47;;;;;;;2.77;2.57;;;25.40;43.30;;;;;;5052952;28;20445;-85
2022/03/04 04:43:14;;;;;;;2.93;2.70;;;25.40;43.20;;;;;;5052876;28;20481;-85
2022/03/04 04:45:41;;;;;;;3.17;2.50;;;25.40;43.20;;;;;;5052752;28;20497;-85
2022/03/04 04:48:08;;;;;;;3.00;2.80;;;25.40;43.20;;;;;;5052895;28;20941;-86
2022/03/04 04:50:35;;;;;;;2.57;2.37;;;25.40;43.20;;;;;;5052717;28;20441;-85
2022/03/04 04:53:01;;;;;;;2.63;2.43;;;25.50;43.20;;;;;;5052954;28;20843;-85
2022/03/04 04:55:28;;;;;;;2.40;2.20;;;25.40;43.20;;;;;;5052875;28;20481;-85
2022/03/04 04:57:56;;;;;;;2.40;2.20;;;25.50;43.20;;;;;;5053306;28;20437;-85
2022/03/04 05:00:23;;;;;;;3.27;3.07;;;25.50;43.10;;;;;;5056757;28;20448;-86
2022/03/04 05:02:50;;;;;;;2.83;2.63;;;25.50;43.10;;;;;;5056636;28;20491;-86
2022/03/04 05:05:16;;;;;;;2.40;2.20;;;25.60;43.10;;;;;;5056605;28;20444;-85
2022/03/04 05:07:43;;;;;;;3.23;3.03;;;25.70;43.20;;;;;;5056747;28;20445;-85
2022/03/04 05:10:11;;;;;;;2.43;2.33;;;25.50;43.00;;;;;;5056595;28;20446;-89
2022/03/04 05:12:37;;;;;;;2.60;2.40;;;25.50;43.00;;;;;;5056520;28;20460;-85
2022/03/04 05:15:07;;;;;;;2.73;2.53;;;25.50;43.00;;;;;;5056292;28;20465;-86
2022/03/04 05:17:34;;;;;;;2.57;2.37;;;25.60;43.10;;;;;;5056642;28;20792;-90
2022/03/04 05:20:01;;;;;;;2.03;1.93;;;25.60;43.00;;;;;;5056501;28;20951;-86
2022/03/04 05:22:28;;;;;;;2.70;2.50;;;25.60;43.00;;;;;;5056395;28;20493;-86
2022/03/04 05:24:54;;;;;;;2.60;2.40;;;25.60;43.00;;;;;;5055980;28;20442;-86
2022/03/04 05:27:21;;;;;;;2.87;2.67;;;25.60;42.90;;;;;;5056290;28;20441;-85
2022/03/04 05:29:48;;;;;;;2.60;2.40;;;25.70;42.90;;;;;;5056235;28;20921;-89
2022/03/04 05:32:16;;;;;;;3.10;2.90;;;25.60;42.90;;;;;;5056336;28;20437;-86
2022/03/04 05:34:43;;;;;;;2.13;2.03;;;25.70;42.90;;;;;;5056014;28;20932;-90
2022/03/04 05:37:10;;;;;;;2.67;2.47;;;25.70;42.90;;;;;;5056188;28;20441;-88
2022/03/04 05:39:36;;;;;;;2.97;2.67;;;25.70;42.90;;;;;;5056268;28;20805;-85
2022/03/04 05:42:03;;;;;;;2.50;2.30;;;25.70;42.90;;;;;;5056123;28;20441;-89
2022/03/04 05:44:30;;;;;;;2.70;2.50;;;25.70;42.90;;;;;;5055559;28;20481;-89
2022/03/04 05:46:57;;;;;;;2.63;2.43;;;25.70;42.90;;;;;;5055783;28;20441;-89
2022/03/04 05:49:25;;;;;;;2.73;2.53;;;25.70;42.90;;;;;;5055826;28;20441;-85
2022/03/04 05:51:52;;;;;;;3.03;2.83;;;25.70;42.90;;;;;;5055649;28;20469;-86
2022/03/04 05:54:19;;;;;;;2.60;2.40;;;25.70;42.90;;;;;;5055742;28;20450;-89
2022/03/04 05:56:46;;;;;;;3.10;2.90;;;25.70;42.90;;;;;;5055851;28;20453;-85
2022/03/04 05:59:12;;;;;;;2.50;2.30;;;25.70;42.90;;;;;;5055621;28;20442;-85
2022/03/04 06:01:39;;;;;;;2.97;2.77;;;25.70;42.90;;;;;;5055720;28;20445;-89
2022/03/04 06:04:06;;;;;;;2.70;2.50;;;25.60;42.80;;;;;;5055621;28;20547;-85
2022/03/04 06:06:34;;;;;;;3.07;2.83;;;25.60;42.80;;;;;;5055609;28;20435;-89
2022/03/04 06:09:01;;;;;;;2.90;2.70;;;25.60;42.80;;;;;;5055199;28;20956;-89
2022/03/04 06:11:27;;;;;;;2.33;2.13;;;25.60;42.80;;;;;;5055501;28;20449;-90
2022/03/04 06:13:54;;;;;;;2.90;2.70;;;25.70;42.80;;;;;;5055396;28;20437;-85
2022/03/04 06:16:21;;;;;;;2.50;2.30;;;25.80;42.90;;;;;;5055284;28;20454;-86
2022/03/04 06:18:48;;;;;;;3.43;2.40;;;25.70;42.80;;;;;;5055614;28;20528;-90
2022/03/04 06:21:14;;;;;;;2.83;2.63;;;25.70;42.80;;;;;;5055500;28;20441;-85
2022/03/04 06:23:43;;;;;;;2.83;2.63;;;25.70;42.80;;;;;;5055019;28;20603;-86
2022/03/04 06:26:17;;;;;;;3.00;2.80;;;25.70;42.70;;;;;;5048709;28;20520;-85
2022/03/04 06:28:44;;;;;;;2.97;2.77;;;25.70;42.70;;;;;;5043065;28;20976;-85
2022/03/04 06:31:11;;;;;;;3.03;2.83;;;25.70;42.60;;;;;;5043742;28;20541;-86
2022/03/04 06:33:39;;;;;;;2.67;2.47;;;25.70;42.60;;;;;;5046624;28;20437;-85
2022/03/04 06:36:09;;;;;;;2.30;2.20;;;25.70;42.60;;;;;;5051964;28;20437;-87
2022/03/04 06:38:38;;;;;;;3.10;2.80;;;25.70;42.70;;;;;;5051457;28;20427;-87
2022/03/04 06:41:07;;;;;;;3.20;2.90;;;25.70;42.60;;;;;;5035284;28;20509;-88
2022/03/04 06:43:33;;;;;;;3.13;2.93;;;25.80;42.70;;;;;;5054126;28;20482;-87
2022/03/04 06:46:01;;;;;;;3.07;2.87;;;25.90;42.80;;;;;;5047879;28;20463;-85
2022/03/04 06:48:28;;;;;;;2.67;2.47;;;25.80;42.70;;;;;;5047738;28;20445;-86
2022/03/04 06:50:55;;;;;;;3.10;2.87;;;25.80;42.70;;;;;;5054569;28;20442;-85
2022/03/04 06:53:23;;;;;;;2.70;2.50;;;25.80;42.70;;;;;;5054492;28;20442;-85
2022/03/04 06:55:50;;;;;;;2.00;1.90;;;25.80;42.70;;;;;;5054905;28;20458;-84
2022/03/04 06:58:18;;;;;;;3.07;2.87;;;25.80;42.60;;;;;;5055164;28;20457;-85
2022/03/04 07:00:47;;;;;;;2.70;2.50;;;25.70;42.60;;;;;;5050879;28;20790;-87
2022/03/04 07:03:14;;;;;;;3.00;2.67;;;25.70;42.70;;;;;;5034804;28;20569;-86
2022/03/04 07:05:43;;;;;;;2.80;2.60;;;25.80;42.70;;;;;;5034204;28;20926;-85
2022/03/04 07:08:11;;;;;;;8.20;3.20;;;25.90;42.70;;;;;;5034709;28;20447;-88
2022/03/04 07:10:38;;;;;;;3.23;2.93;;;25.90;42.70;;;;;;5034498;28;20454;-89
2022/03/04 07:13:06;;;;;;;2.70;2.50;;;26.00;42.80;;;;;;5034738;28;20451;-89
2022/03/04 07:15:34;;;;;;;4.60;3.67;;;26.00;42.80;;;;;;5034536;28;21008;-86
2022/03/04 07:18:02;;;;;;;4.63;2.60;;;26.00;42.80;;;;;;5034689;28;20538;-85
2022/03/04 07:20:29;;;;;;;10.23;2.87;;;26.00;42.90;;;;;;5034194;28;20443;-92
2022/03/04 07:22:56;;;;;;;3.13;2.83;;;26.00;42.80;;;;;;5034299;28;20918;-86
2022/03/04 07:25:23;;;;;;;2.73;2.53;;;26.10;42.80;;;;;;5034438;28;20964;-93
2022/03/04 07:27:52;;;;;;;4.37;3.13;;;26.10;42.90;;;;;;5036714;28;20434;-94
2022/03/04 07:30:26;;;;;;;3.07;2.87;;;26.10;42.90;;;;;;5037509;28;20570;-95
2022/03/04 07:36:33;;;;;;;3.10;2.40;;;26.20;42.90;;;;;;4979786;28;20489;-86
2022/03/04 07:39:00;;;;;;;3.13;2.93;;;26.00;42.90;;;;;;4993055;28;20986;-89
2022/03/04 07:41:29;;;;;;;2.80;2.60;;;26.10;42.90;;;;;;4976650;28;20440;-88
2022/03/04 07:43:59;;;;;;;2.93;2.70;;;26.10;42.80;;;;;;4987159;28;20511;-88
2022/03/04 07:46:26;;;;;;;3.03;2.83;;;26.10;42.80;;;;;;4990757;28;20465;-90
2022/03/04 07:48:53;;;;;;;2.50;2.40;;;26.20;42.90;;;;;;4975602;28;20433;-88
2022/03/04 07:51:19;;;;;;;3.17;2.97;;;26.10;42.70;;;;;;4973733;28;20984;-87
2022/03/04 07:53:48;;;;;;;3.67;3.30;;;26.20;42.80;;;;;;4979056;28;20453;-87
2022/03/04 07:56:15;;;;;;;3.00;2.80;;;26.20;42.90;;;;;;4980513;28;20448;-87
2022/03/04 07:58:42;;;;;;;3.17;2.97;;;26.20;42.80;;;;;;4975972;28;20449;-87
2022/03/04 08:01:09;;;;;;;3.50;3.20;;;26.20;42.80;;;;;;4982517;28;20451;-89
2022/03/04 08:03:36;;;;;;;3.87;3.57;;;26.20;42.70;;;;;;4978800;28;20477;-87
2022/03/04 08:06:02;;;;;;;2.97;2.77;;;26.20;42.30;;;;;;4973833;28;20437;-90
2022/03/04 08:08:29;;;;;;;3.90;3.60;;;26.20;42.40;;;;;;4966423;28;20507;-86
2022/03/04 08:10:57;;;;;;;6.00;3.90;;;26.30;41.90;;;;;;4976098;28;20827;-89
2022/03/04 08:13:24;;;;;;;4.43;3.00;;;26.30;42.30;;;;;;4972630;28;20999;-87
2022/03/04 08:15:51;;;;;;;3.53;2.93;;;26.40;42.40;;;;;;4972880;28;20461;-87
2022/03/04 08:18:17;;;;;;;3.33;3.03;;;26.50;42.40;;;;;;4973058;28;20441;-87
2022/03/04 08:20:44;;;;;;;3.13;2.83;;;26.50;42.50;;;;;;4972706;28;20453;-88
2022/03/04 08:23:11;;;;;;;2.87;2.67;;;26.50;42.50;;;;;;4972693;28;20824;-87
2022/03/04 08:25:38;;;;;;;2.60;2.40;;;26.60;42.50;;;;;;4972878;28;20491;-86
2022/03/04 08:28:07;;;;;;;2.80;2.60;;;26.70;42.60;;;;;;4979184;28;20440;-86
2022/03/04 08:30:34;;;;;;;4.10;2.70;;;26.70;42.50;;;;;;4977599;28;20448;-86
2022/03/04 08:33:01;;;;;;;5.60;5.10;;;26.70;42.50;;;;;;4994768;28;20440;-90
2022/03/04 08:35:28;;;;;;;4.70;4.40;;;26.80;41.20;;;;;;5013276;28;20455;-90
2022/03/04 08:37:54;;;;;;;4.77;4.37;;;26.70;40.60;;;;;;5013605;28;20494;-91
2022/03/04 08:40:22;;;;;;;4.60;4.30;;;26.80;40.60;;;;;;5013426;28;20443;-90
2022/03/04 08:42:49;;;;;;;5.00;4.57;;;27.00;40.70;;;;;;5013745;28;20475;-90
2022/03/04 08:45:17;;;;;;;4.43;4.03;;;26.90;40.70;;;;;;5013686;28;20495;-90
2022/03/04 08:47:44;;;;;;;4.47;4.10;;;27.10;40.80;;;;;;5030372;28;20435;-90
2022/03/04 08:50:12;;;;;;;4.30;4.00;;;27.30;40.60;;;;;;5015710;28;20463;-90
2022/03/04 08:52:39;;;;;;;4.40;4.00;;;27.70;40.30;;;;;;5027518;28;20482;-90
2022/03/04 08:55:13;;;;;;;3.93;3.73;;;28.20;39.80;;;;;;5033436;28;20451;-90
2022/03/04 08:57:41;;;;;;;4.43;4.07;;;28.80;39.20;;;;;;5033664;28;20446;-90
2022/03/04 09:00:09;;;;;;;4.13;3.43;;;29.50;38.60;;;;;;5032858;28;20810;-86
2022/03/04 09:02:37;;;;;;;3.30;3.03;;;30.10;39.00;;;;;;5033153;28;20450;-86
2022/03/04 09:05:05;;;;;;;3.70;3.40;;;30.70;38.80;;;;;;5032746;28;20490;-89
2022/03/04 09:07:31;;;;;;;3.13;2.80;;;31.10;38.50;;;;;;5033480;28;20470;-89
2022/03/04 09:09:58;;;;;;;3.50;3.20;;;31.40;38.30;;;;;;5032743;28;20455;-87
2022/03/04 09:12:25;;;;;;;3.30;3.10;;;31.80;38.10;;;;;;5032979;28;20471;-86
2022/03/04 09:14:52;;;;;;;4.60;4.30;;;32.20;37.50;;;;;;5032782;28;20482;-88
2022/03/04 09:17:19;;;;;;;3.40;3.10;;;32.60;37.30;;;;;;5032773;28;20956;-87
2022/03/04 09:19:47;;;;;;;3.57;3.27;;;32.90;37.20;;;;;;5032794;28;20442;-87
2022/03/04 09:22:13;;;;;;;4.00;3.03;;;33.50;37.10;;;;;;5032798;28;20446;-87
2022/03/04 09:24:40;;;;;;;2.70;2.50;;;33.50;36.80;;;;;;5032939;28;20965;-87
2022/03/04 09:27:07;;;;;;;3.57;3.33;;;33.80;36.70;;;;;;5032511;28;20454;-87
2022/03/04 09:29:34;;;;;;;4.10;2.67;;;34.00;36.50;;;;;;5015034;28;20461;-87
2022/03/04 09:32:01;;;;;;;3.00;2.80;;;34.30;36.40;;;;;;5032087;28;20447;-87
2022/03/04 09:34:27;;;;;;;3.43;3.13;;;34.50;36.30;;;;;;5031218;28;20439;-89
2022/03/04 09:36:56;;;;;;;2.80;2.63;;;34.50;36.20;;;;;;5032214;28;20450;-87
2022/03/04 09:39:23;;;;;;;2.97;2.67;;;34.40;36.30;;;;;;5032446;28;20947;-87
2022/03/04 09:41:49;;;;;;;3.20;2.60;;;34.10;36.60;;;;;;5032364;28;20449;-87
2022/03/04 09:44:17;;;;;;;5.37;4.60;;;33.40;37.00;;;;;;5033344;28;20515;-86
2022/03/04 09:46:44;;;;;;;6.27;5.77;;;32.90;36.70;;;;;;5036127;28;20452;-86
2022/03/04 09:49:14;;;;;;;7.90;7.27;;;32.30;35.70;;;;;;5035706;28;20444;-87
2022/03/04 09:51:41;;;;;;;6.00;5.60;;;31.90;35.70;;;;;;5035946;28;20809;-86
2022/03/04 09:54:09;;;;;;;5.80;5.43;;;31.40;36.30;;;;;;5036233;28;20446;-86
2022/03/04 09:56:36;;;;;;;5.00;4.63;;;31.10;36.70;;;;;;5036327;28;20439;-86
2022/03/04 09:59:03;;;;;;;4.37;4.07;;;30.80;37.00;;;;;;5036153;28;20466;-86
2022/03/04 10:01:29;;;;;;;6.47;5.93;;;30.60;37.30;;;;;;5035906;28;20439;-86
2022/03/04 10:03:56;;;;;;;8.70;7.80;;;30.30;37.30;;;;;;5036080;28;20470;-86
2022/03/04 10:06:23;;;;;;;8.20;7.40;;;30.00;37.20;;;;;;5035538;28;20442;-86
2022/03/04 10:08:52;;;;;;;7.50;6.80;;;29.70;37.20;;;;;;5036097;28;20443;-88
2022/03/04 10:11:28;;;;;;;8.67;7.00;;;29.50;37.40;;;;;;5035562;28;20446;-86
2022/03/04 10:13:56;;;;;;;6.63;6.13;;;29.30;37.30;;;;;;5035575;28;20439;-86
2022/03/04 10:16:25;;;;;;;5.80;5.30;;;29.20;37.70;;;;;;5035559;28;20474;-85
2022/03/04 10:19:09;;;;;;;4.77;4.37;;;29.10;38.00;;;;;;5035602;28;20495;-86
2022/03/04 10:21:47;;;;;;;6.00;5.50;;;29.10;38.20;;;;;;5035523;28;20446;-86
2022/03/04 10:24:14;;;;;;;6.37;5.77;;;28.90;38.00;;;;;;5035463;28;20485;-86
2022/03/04 10:26:42;;;;;;;5.90;5.47;;;28.90;38.10;;;;;;5035658;28;20443;-86
2022/03/04 10:29:18;;;;;;;5.57;5.07;;;28.80;38.40;;;;;;5035364;28;20442;-87
2022/03/04 10:32:08;;;;;;;8.90;6.70;;;28.70;38.30;;;;;;5035773;28;20468;-86
2022/03/04 10:34:44;;;;;;;6.83;6.33;;;28.70;37.80;;;;;;5034822;28;20442;-87
2022/03/04 10:37:11;;;;;;;7.50;6.90;;;28.60;38.00;;;;;;5035239;28;20917;-90
2022/03/04 10:39:56;;;;;;;7.27;6.70;;;28.60;38.50;;;;;;5035086;28;20565;-89
2022/03/04 10:42:42;;;;;;;7.17;6.43;;;28.50;38.30;;;;;;5035320;28;20510;-89
2022/03/04 10:45:10;;;;;;;8.63;6.67;;;28.50;38.50;;;;;;5034974;28;20482;-92
2022/03/04 10:47:45;;;;;;;7.20;6.60;;;28.50;38.50;;;;;;5035006;28;20517;-92
2022/03/04 10:50:13;;;;;;;11.97;10.87;;;28.40;38.40;;;;;;5035278;28;20521;-89
2022/03/04 10:52:55;;;;;;;13.13;11.87;;;28.20;36.70;;;;;;5035099;28;20828;-89
2022/03/04 10:55:31;;;;;;;9.93;9.07;;;27.90;36.70;;;;;;5034341;28;20454;-89
2022/03/04 10:58:00;;;;;;;9.73;8.83;;;27.80;37.40;;;;;;5034783;28;20821;-90
2022/03/04 11:00:29;;;;;;;7.17;6.47;;;27.80;37.80;;;;;;5016460;28;20447;-90
2022/03/04 11:02:56;;;;;;;7.53;6.87;;;27.80;38.30;;;;;;5017081;28;20535;-89
2022/03/04 11:05:24;;;;;;;9.13;7.70;;;27.80;38.30;;;;;;5017532;28;20483;-89
2022/03/04 11:07:51;;;;;;;11.63;10.53;;;27.90;37.70;;;;;;5018846;28;20474;-90
2022/03/04 11:10:19;;;;;;;11.90;10.80;;;27.80;36.60;;;;;;5019696;28;20439;-90
2022/03/04 11:12:50;;;;;;;10.70;9.80;;;27.70;36.60;;;;;;5019822;28;20432;-89
2022/03/04 11:15:19;;;;;;;13.53;10.87;;;27.50;36.40;;;;;;5019775;28;21004;-90
2022/03/04 11:17:47;;;;;;;11.40;10.40;;;27.40;36.30;;;;;;5019681;28;20448;-91
2022/03/04 11:20:15;;;;;;;10.20;9.40;;;27.40;36.30;;;;;;5031638;28;20475;-90
2022/03/04 11:22:43;;;;;;;9.53;8.70;;;27.30;36.40;;;;;;5033941;28;20956;-90
2022/03/04 11:25:12;;;;;;;8.77;8.00;;;27.30;36.80;;;;;;5034010;28;21066;-89
2022/03/04 11:27:43;;;;;;;13.63;8.47;;;27.30;36.90;;;;;;5034340;28;20450;-89
2022/03/04 11:30:38;;;;;;;10.67;9.67;;;27.30;36.90;;;;;;5034808;28;20430;-89
2022/03/04 11:33:13;;;;;;;9.60;8.60;;;27.20;37.60;;;;;;5034798;28;20447;-89
2022/03/04 11:35:56;;;;;;;10.80;9.80;;;27.10;37.30;;;;;;5034316;28;20434;-89
2022/03/04 11:39:07;;;;;;;11.07;9.97;;;27.10;37.30;;;;;;5034189;28;20845;-89
2022/03/04 11:42:03;;;;;;;10.97;10.00;;;27.10;37.50;;;;;;5034223;28;20435;-89
2022/03/04 11:44:30;;;;;;;9.47;8.57;;;27.10;37.20;;;;;;5027866;28;20488;-89
2022/03/04 11:47:14;;;;;;;8.70;7.90;;;27.10;37.50;;;;;;5033994;28;20929;-92
2022/03/04 11:49:46;;;;;;;9.37;8.40;;;27.00;37.50;;;;;;5034153;28;20454;-92
2022/03/04 11:52:21;;;;;;;11.97;10.77;;;27.00;37.50;;;;;;5033775;28;20513;-89
2022/03/04 11:55:12;;;;;;;11.80;10.60;;;26.90;36.70;;;;;;5034261;28;20513;-89
2022/03/04 11:57:40;;;;;;;10.93;9.83;;;27.00;36.90;;;;;;5034197;28;20447;-89
2022/03/04 12:00:25;;;;;;;16.83;9.07;;;27.10;37.10;;;;;;5034082;28;20443;-89
2022/03/04 12:02:56;;;;;;;6.80;6.20;;;27.00;37.30;;;;;;5034062;28;20452;-89
2022/03/04 12:05:30;;;;;;;6.00;5.50;;;27.00;37.80;;;;;;5033790;28;20497;-90
2022/03/04 12:08:11;;;;;;;5.90;5.27;;;27.10;38.00;;;;;;5033871;28;20799;-90
2022/03/04 12:10:53;;;;;;;6.27;5.77;;;27.30;38.20;;;;;;5034149;28;20514;-93
2022/03/04 12:13:23;;;;;;;5.90;5.40;;;27.20;38.10;;;;;;5033556;28;20910;-89
2022/03/04 12:15:53;;;;;;;6.13;5.60;;;27.30;38.10;;;;;;5033693;28;20945;-93
2022/03/04 12:18:28;;;;;;;5.97;5.47;;;27.30;38.10;;;;;;5033894;28;20442;-89
2022/03/04 12:21:01;;;;;;;5.03;4.60;;;27.30;38.00;;;;;;5033893;28;20426;-94
2022/03/04 12:23:36;;;;;;;5.30;4.90;;;27.40;38.10;;;;;;5033694;28;20439;-89
2022/03/04 12:26:11;;;;;;;4.77;4.37;;;27.40;38.10;;;;;;5033606;28;20517;-89
2022/03/04 12:28:43;;;;;;;4.97;4.57;;;27.40;38.10;;;;;;5033478;28;20442;-94
2022/03/04 12:31:18;;;;;;;4.77;4.37;;;27.40;38.10;;;;;;5033758;28;20442;-89
2022/03/04 12:33:50;;;;;;;5.40;4.73;;;27.50;38.10;;;;;;5033498;28;20431;-90
2022/03/04 12:36:18;;;;;;;6.17;5.60;;;27.50;38.20;;;;;;5033452;28;20934;-88
2022/03/04 12:38:47;;;;;;;7.13;6.43;;;27.40;38.30;;;;;;5033415;28;20814;-87
2022/03/04 12:41:17;;;;;;;7.73;6.83;;;27.40;37.90;;;;;;5033440;28;20442;-87
2022/03/04 12:43:46;;;;;;;11.27;9.07;;;27.30;38.20;;;;;;5033411;28;20803;-87
2022/03/04 12:46:13;;;;;;;9.90;8.90;;;27.20;37.60;;;;;;5033423;28;20491;-91
2022/03/04 12:48:40;;;;;;;13.93;9.73;;;27.20;37.60;;;;;;5033330;28;20438;-87
2022/03/04 12:51:23;;;;;;;13.07;11.77;;;27.10;37.40;;;;;;5033013;28;20922;-92
2022/03/04 12:53:50;;;;;;;11.17;10.10;;;27.10;37.00;;;;;;5033270;28;20439;-87
2022/03/04 12:56:18;;;;;;;10.50;9.37;;;27.10;36.90;;;;;;5033370;28;20446;-87